createdAt,value
2022-11-20T00:00:17.320Z,0.45
2022-11-20T00:02:45.531Z,0.46
2022-11-20T00:05:16.198Z,0.37
2022-11-20T00:07:44.308Z,0.45
2022-11-20T00:10:14.123Z,0.46
2022-11-20T00:12:42.140Z,0.51
2022-11-20T00:15:12.775Z,0.53
2022-11-20T00:17:40.942Z,0.50
2022-11-20T00:20:10.950Z,0.52
2022-11-20T00:22:39.072Z,0.52
2022-11-20T00:25:07.908Z,0.50
2022-11-20T00:27:37.501Z,0.49
2022-11-20T00:30:12.392Z,0.44
2022-11-20T00:32:48.209Z,0.45
2022-11-20T00:35:16.747Z,0.43
2022-11-20T00:37:44.901Z,0.47
2022-11-20T00:40:14.316Z,0.47
2022-11-20T00:42:43.731Z,0.45
2022-11-20T00:45:12.214Z,0.49
2022-11-20T00:47:40.245Z,0.47
2022-11-20T00:50:09.151Z,0.49
2022-11-20T00:52:37.234Z,0.48
2022-11-20T00:55:08.591Z,0.49
2022-11-20T00:57:36.581Z,0.50
2022-11-20T01:00:10.179Z,0.52
2022-11-20T01:02:38.176Z,0.52
2022-11-20T01:05:09.172Z,0.53
2022-11-20T01:07:37.391Z,0.55
2022-11-20T01:10:06.498Z,0.50
2022-11-20T01:12:39.146Z,0.52
2022-11-20T01:15:09.944Z,0.51
2022-11-20T01:17:38.268Z,0.54
2022-11-20T01:20:07.463Z,0.57
2022-11-20T01:22:37.918Z,0.59
2022-11-20T01:25:07.161Z,0.59
2022-11-20T01:27:35.151Z,0.58
2022-11-20T01:30:06.405Z,0.57
2022-11-20T01:32:38.222Z,0.59
2022-11-20T01:35:10.740Z,0.61
2022-11-20T01:37:38.804Z,0.64
2022-11-20T01:40:10.138Z,0.64
2022-11-20T01:42:58.293Z,0.64
2022-11-20T01:46:01.320Z,0.67
2022-11-20T01:48:35.689Z,0.72
2022-11-20T01:51:08.911Z,0.78
2022-11-20T01:53:39.275Z,0.78
2022-11-20T01:56:14.222Z,0.76
2022-11-20T01:58:49.788Z,0.76
2022-11-20T02:01:18.109Z,0.77
2022-11-20T02:03:50.374Z,0.75
2022-11-20T02:06:26.286Z,0.72
2022-11-20T02:08:55.076Z,0.68
2022-11-20T02:11:23.878Z,0.67
2022-11-20T02:13:54.228Z,0.67
2022-11-20T02:16:26.431Z,0.68
2022-11-20T02:21:42.448Z,0.63
2022-11-20T02:24:16.499Z,0.72
2022-11-20T02:26:51.647Z,0.70
2022-11-20T02:29:25.436Z,0.75
2022-11-20T02:31:55.024Z,0.72
2022-11-20T02:34:23.122Z,0.75
2022-11-20T02:36:54.341Z,0.76
2022-11-20T02:39:26.903Z,0.70
2022-11-20T02:41:58.861Z,0.70
2022-11-20T02:44:26.839Z,0.70
2022-11-20T02:46:59.366Z,0.71
2022-11-20T02:49:27.674Z,0.70
2022-11-20T02:51:55.933Z,0.67
2022-11-20T02:54:28.217Z,0.62
2022-11-20T02:56:58.880Z,0.54
2022-11-20T02:59:26.846Z,0.68
2022-11-20T03:01:55.114Z,0.64
2022-11-20T03:04:25.378Z,0.74
2022-11-20T03:06:54.017Z,0.78
2022-11-20T03:09:22.177Z,0.78
2022-11-20T03:11:52.320Z,0.71
2022-11-20T03:14:20.349Z,0.68
2022-11-20T03:16:48.491Z,0.76
2022-11-20T03:19:19.270Z,0.79
2022-11-20T03:21:48.408Z,0.80
2022-11-20T03:24:16.808Z,0.84
2022-11-20T03:26:47.136Z,0.84
2022-11-20T03:29:16.599Z,0.82
2022-11-20T03:31:45.112Z,0.82
2022-11-20T03:34:14.043Z,0.81
2022-11-20T03:36:43.692Z,0.80
2022-11-20T03:39:12.320Z,0.75
2022-11-20T03:41:44.541Z,0.84
2022-11-20T03:44:13.910Z,0.86
2022-11-20T03:46:45.905Z,0.82
2022-11-20T03:49:13.893Z,0.85
2022-11-20T03:51:41.853Z,0.87
2022-11-20T03:54:11.039Z,0.85
2022-11-20T03:56:41.236Z,0.84
2022-11-20T03:59:12.553Z,0.80
2022-11-20T04:01:45.472Z,0.82
2022-11-20T04:04:23.328Z,0.82
2022-11-20T04:06:51.365Z,0.82
2022-11-20T04:09:19.830Z,0.76
2022-11-20T04:11:48.121Z,0.74
2022-11-20T04:14:17.643Z,0.73
2022-11-20T04:16:45.735Z,0.81
2022-11-20T04:19:15.514Z,0.81
2022-11-20T04:21:45.445Z,0.83
2022-11-20T04:24:13.684Z,0.84
2022-11-20T04:26:42.125Z,0.88
2022-11-20T04:29:13.075Z,0.85
2022-11-20T04:31:41.652Z,0.89
2022-11-20T04:34:09.682Z,0.89
2022-11-20T04:36:37.645Z,0.92
2022-11-20T04:39:16.842Z,0.89
2022-11-20T04:41:45.007Z,0.89
2022-11-20T04:44:13.341Z,0.82
2022-11-20T04:46:44.032Z,0.85
2022-11-20T04:49:14.247Z,0.81
2022-11-20T04:51:42.373Z,0.83
2022-11-20T04:54:13.237Z,0.84
2022-11-20T04:56:45.964Z,0.90
2022-11-20T04:59:14.201Z,0.91
2022-11-20T05:01:44.889Z,0.99
2022-11-20T05:04:13.132Z,0.98
2022-11-20T05:06:41.254Z,0.97
2022-11-20T05:09:13.890Z,1.01
2022-11-20T05:11:50.343Z,1.02
2022-11-20T05:14:21.443Z,1.04
2022-11-20T05:16:49.726Z,0.99
2022-11-20T05:19:17.763Z,1.02
2022-11-20T05:21:48.204Z,0.97
2022-11-20T05:24:19.051Z,1.00
2022-11-20T05:26:50.815Z,0.95
2022-11-20T05:29:19.217Z,0.94
2022-11-20T05:31:47.475Z,0.94
2022-11-20T05:34:15.706Z,0.97
2022-11-20T05:36:44.002Z,0.96
2022-11-20T05:39:11.983Z,1.00
2022-11-20T05:41:39.952Z,1.02
2022-11-20T05:44:12.244Z,1.06
2022-11-20T05:46:42.405Z,1.06
2022-11-20T05:49:13.059Z,0.95
2022-11-20T05:51:41.123Z,0.99
2022-11-20T05:54:09.228Z,1.01
2022-11-20T05:56:37.470Z,1.01
2022-11-20T05:59:05.671Z,1.03
2022-11-20T06:01:38.044Z,1.05
2022-11-20T06:04:06.189Z,1.02
2022-11-20T06:06:34.191Z,1.03
2022-11-20T06:09:02.284Z,1.05
2022-11-20T06:11:30.232Z,1.08
2022-11-20T06:13:58.476Z,1.06
2022-11-20T06:16:28.882Z,1.04
2022-11-20T06:18:58.264Z,1.08
2022-11-20T06:21:26.263Z,1.07
2022-11-20T06:23:56.498Z,1.10
2022-11-20T06:26:28.123Z,1.12
2022-11-20T06:28:57.193Z,1.04
2022-11-20T06:31:27.106Z,1.09
2022-11-20T06:33:55.591Z,1.13
2022-11-20T06:36:25.307Z,1.10
2022-11-20T06:38:53.427Z,1.06
2022-11-20T06:41:23.423Z,1.04
2022-11-20T06:43:51.898Z,1.06
2022-11-20T06:46:22.589Z,1.04
2022-11-20T06:48:51.609Z,1.07
2022-11-20T06:51:20.308Z,0.90
2022-11-20T06:53:49.638Z,1.14
2022-11-20T06:56:17.770Z,1.11
2022-11-20T06:58:45.794Z,1.08
2022-11-20T07:01:17.031Z,1.12
2022-11-20T07:03:48.971Z,1.16
2022-11-20T07:06:19.423Z,1.20
2022-11-20T07:08:49.120Z,1.19
2022-11-20T07:11:19.309Z,1.26
2022-11-20T07:13:47.416Z,1.31
2022-11-20T07:16:15.423Z,1.32
2022-11-20T07:18:48.849Z,1.36
2022-11-20T07:22:38.067Z,1.34
2022-11-20T07:25:06.886Z,1.39
2022-11-20T07:27:35.202Z,1.37
2022-11-20T07:30:03.302Z,1.42
2022-11-20T07:32:32.018Z,1.47
2022-11-20T07:35:00.073Z,1.51
2022-11-20T07:37:28.161Z,1.51
2022-11-20T07:39:57.459Z,1.49
2022-11-20T07:42:25.579Z,1.53
2022-11-20T07:44:54.181Z,1.55
2022-11-20T07:47:24.300Z,1.46
2022-11-20T07:49:52.393Z,1.51
2022-11-20T07:52:22.557Z,1.48
2022-11-20T07:54:50.541Z,1.51
2022-11-20T07:57:22.158Z,1.51
2022-11-20T07:59:56.154Z,1.51
2022-11-20T08:02:24.252Z,1.51
2022-11-20T08:04:54.526Z,1.50
2022-11-20T08:07:22.614Z,1.48
2022-11-20T08:09:53.736Z,1.45
2022-11-20T08:12:41.279Z,1.42
2022-11-20T08:15:13.307Z,1.48
2022-11-20T08:18:02.018Z,1.53
2022-11-20T08:20:30.561Z,1.39
2022-11-20T08:23:02.933Z,1.56
2022-11-20T08:25:34.351Z,1.57
2022-11-20T08:28:18.358Z,1.57
2022-11-20T08:30:48.762Z,1.58
2022-11-20T08:33:18.461Z,1.56
2022-11-20T08:35:46.845Z,1.61
2022-11-20T08:38:17.219Z,1.70
2022-11-20T08:41:06.278Z,1.73
2022-11-20T08:43:35.683Z,1.83
2022-11-20T08:46:03.812Z,1.86
2022-11-20T08:48:32.285Z,1.80
2022-11-20T08:51:00.694Z,1.74
2022-11-20T08:53:28.870Z,1.78
2022-11-20T08:55:58.407Z,1.75
2022-11-20T08:58:26.768Z,1.73
2022-11-20T09:00:56.492Z,1.88
2022-11-20T09:03:29.941Z,1.84
2022-11-20T09:06:01.581Z,1.88
2022-11-20T09:08:30.321Z,1.78
2022-11-20T09:11:01.656Z,1.84
2022-11-20T09:13:30.934Z,1.92
2022-11-20T09:16:01.985Z,1.89
2022-11-20T09:18:32.630Z,1.96
2022-11-20T09:21:05.442Z,1.90
2022-11-20T09:23:35.630Z,1.96
2022-11-20T09:26:05.316Z,2.08
2022-11-20T09:28:33.697Z,2.14
2022-11-20T09:31:07.002Z,2.21
2022-11-20T09:33:34.877Z,2.17
2022-11-20T09:36:05.726Z,2.28
2022-11-20T09:38:36.258Z,2.37
2022-11-20T09:41:06.465Z,2.43
2022-11-20T09:43:52.027Z,2.47
2022-11-20T09:46:31.397Z,2.49
2022-11-20T09:49:20.396Z,2.62
2022-11-20T09:51:59.135Z,2.77
2022-11-20T09:54:34.304Z,2.59
2022-11-20T09:57:05.680Z,2.71
2022-11-20T09:59:40.865Z,2.76
2022-11-20T10:02:19.276Z,2.73
2022-11-20T10:04:54.365Z,2.88
2022-11-20T10:07:32.927Z,2.90
2022-11-20T10:10:01.774Z,2.74
2022-11-20T10:12:49.939Z,2.73
2022-11-20T10:15:35.861Z,2.58
2022-11-20T10:18:16.492Z,2.54
2022-11-20T10:20:51.347Z,2.70
2022-11-20T10:23:41.388Z,2.74
2022-11-20T10:26:22.219Z,2.64
2022-11-20T10:29:08.534Z,2.92
2022-11-20T10:31:39.672Z,3.09
2022-11-20T10:34:22.899Z,3.26
2022-11-20T10:36:54.684Z,3.24
2022-11-20T10:39:34.732Z,3.18
2022-11-20T10:42:03.613Z,3.19
2022-11-20T10:44:55.130Z,3.14
2022-11-20T10:47:29.651Z,3.33
2022-11-20T10:50:06.464Z,3.34
2022-11-20T10:52:47.076Z,3.22
2022-11-20T10:55:27.879Z,3.31
2022-11-20T10:58:08.050Z,3.20
2022-11-20T11:00:38.320Z,3.37
2022-11-20T11:03:22.508Z,3.39
2022-11-20T11:05:56.906Z,3.29
2022-11-20T11:08:37.223Z,3.22
2022-11-20T11:11:24.190Z,3.27
2022-11-20T11:13:52.944Z,3.51
2022-11-20T11:16:25.737Z,3.58
2022-11-20T11:18:54.483Z,3.56
2022-11-20T11:21:26.502Z,3.76
2022-11-20T11:24:26.815Z,4.07
2022-11-20T11:26:58.145Z,4.05
2022-11-20T11:29:30.551Z,4.16
2022-11-20T11:32:07.396Z,4.99
2022-11-20T11:34:35.695Z,4.96
2022-11-20T11:37:15.533Z,4.54
2022-11-20T11:39:45.591Z,4.54
2022-11-20T11:42:18.507Z,5.34
2022-11-20T11:45:07.677Z,5.49
2022-11-20T11:47:39.921Z,4.97
2022-11-20T11:50:18.015Z,4.81
2022-11-20T11:52:50.971Z,4.55
2022-11-20T11:55:27.326Z,4.42
2022-11-20T11:58:01.764Z,4.45
2022-11-20T12:00:29.874Z,4.36
2022-11-20T12:03:10.940Z,4.33
2022-11-20T12:05:44.179Z,4.23
2022-11-20T12:08:23.588Z,4.16
2022-11-20T12:10:58.592Z,4.12
2022-11-20T12:13:42.149Z,4.10
2022-11-20T12:16:16.135Z,4.09
2022-11-20T12:18:44.856Z,4.08
2022-11-20T12:23:52.055Z,4.05
2022-11-20T12:26:37.047Z,4.25
2022-11-20T12:29:16.889Z,4.28
2022-11-20T12:32:01.280Z,4.33
2022-11-20T12:34:48.500Z,4.43
2022-11-20T12:37:32.144Z,4.45
2022-11-20T12:40:19.931Z,4.55
2022-11-20T12:43:21.199Z,4.61
2022-11-20T12:46:24.411Z,4.68
2022-11-20T12:49:10.314Z,4.63
2022-11-20T12:52:14.606Z,4.72
2022-11-20T12:55:04.079Z,4.77
2022-11-20T12:57:41.200Z,4.84
2022-11-20T13:00:15.031Z,4.88
2022-11-20T13:03:15.510Z,4.92
2022-11-20T13:05:54.077Z,5.04
2022-11-20T13:08:25.480Z,5.05
2022-11-20T13:11:01.685Z,5.10
2022-11-20T13:13:44.140Z,5.10
2022-11-20T13:16:18.399Z,5.01
2022-11-20T13:18:46.799Z,5.18
2022-11-20T13:21:20.627Z,5.17
2022-11-20T13:23:49.549Z,5.35
2022-11-20T13:26:21.015Z,5.42
2022-11-20T13:29:06.471Z,5.51
2022-11-20T13:31:39.416Z,5.51
2022-11-20T13:34:09.398Z,5.55
2022-11-20T13:36:51.301Z,5.62
2022-11-20T13:39:26.926Z,5.64
2022-11-20T13:41:59.370Z,5.75
2022-11-20T13:44:32.764Z,5.81
2022-11-20T13:47:00.623Z,5.74
2022-11-20T13:49:34.254Z,5.84
2022-11-20T13:52:29.148Z,5.92
2022-11-20T13:55:19.586Z,5.79
2022-11-20T13:58:06.254Z,5.76
2022-11-20T14:00:45.304Z,5.76
2022-11-20T14:03:37.938Z,5.83
2022-11-20T14:06:16.829Z,5.82
2022-11-20T14:08:47.921Z,5.87
2022-11-20T14:11:23.774Z,5.86
2022-11-20T14:14:00.358Z,5.93
2022-11-20T14:16:32.112Z,5.92
2022-11-20T14:19:20.562Z,5.93
2022-11-20T14:21:49.512Z,5.88
2022-11-20T14:24:22.479Z,5.53
2022-11-20T14:26:52.190Z,5.64
2022-11-20T14:29:30.714Z,5.66
2022-11-20T14:32:00.410Z,5.62
2022-11-20T14:34:30.892Z,5.59
2022-11-20T14:37:02.284Z,5.55
2022-11-20T14:39:34.345Z,5.53
2022-11-20T14:42:02.830Z,5.49
2022-11-20T14:44:34.266Z,5.42
2022-11-20T14:47:05.927Z,5.40
2022-11-20T14:49:34.144Z,5.44
2022-11-20T14:52:14.898Z,5.47
2022-11-20T14:54:47.116Z,5.52
2022-11-20T14:57:27.415Z,5.48
2022-11-20T15:00:22.238Z,5.44
2022-11-20T15:02:53.263Z,5.38
2022-11-20T15:05:23.105Z,5.38
2022-11-20T15:07:53.574Z,5.41
2022-11-20T15:10:26.030Z,5.51
2022-11-20T15:13:04.367Z,5.48
2022-11-20T15:15:38.547Z,5.51
2022-11-20T15:18:13.918Z,5.48
2022-11-20T15:20:43.801Z,5.43
2022-11-20T15:23:15.822Z,5.35
2022-11-20T15:25:47.100Z,5.32
2022-11-20T15:28:19.931Z,5.32
2022-11-20T15:30:49.130Z,5.22
2022-11-20T15:33:21.002Z,5.27
2022-11-20T15:35:51.517Z,5.28
2022-11-20T15:38:19.943Z,5.28
2022-11-20T15:40:50.215Z,5.38
2022-11-20T15:43:18.494Z,5.38
2022-11-20T15:45:48.490Z,5.32
2022-11-20T15:48:22.432Z,5.25
2022-11-20T15:50:55.151Z,5.31
2022-11-20T15:53:23.462Z,5.34
2022-11-20T15:55:51.755Z,5.40
2022-11-20T15:58:19.916Z,5.34
2022-11-20T16:00:48.405Z,5.30
2022-11-20T16:03:17.803Z,5.30
2022-11-20T16:05:47.866Z,5.27
2022-11-20T16:08:16.049Z,5.26
2022-11-20T16:10:46.557Z,5.24
2022-11-20T16:13:35.856Z,5.22
2022-11-20T16:16:07.684Z,5.22
2022-11-20T16:18:37.858Z,5.21
2022-11-20T16:21:14.336Z,5.23
2022-11-20T16:23:43.398Z,5.19
2022-11-20T16:26:12.838Z,5.18
2022-11-20T16:28:40.851Z,5.14
2022-11-20T16:31:13.144Z,5.01
2022-11-20T16:33:41.306Z,5.11
2022-11-20T16:36:17.114Z,5.13
2022-11-20T16:38:45.245Z,5.18
2022-11-20T16:41:15.444Z,5.16
2022-11-20T16:43:47.489Z,5.17
2022-11-20T16:46:16.199Z,5.19
2022-11-20T16:48:44.255Z,5.20
2022-11-20T16:51:15.150Z,5.15
2022-11-20T16:53:52.485Z,5.14
2022-11-20T16:56:22.402Z,5.11
2022-11-20T16:58:55.015Z,5.16
2022-11-20T17:01:25.506Z,5.17
2022-11-20T17:03:57.718Z,5.12
2022-11-20T17:06:28.802Z,5.08
2022-11-20T17:08:57.651Z,5.02
2022-11-20T17:11:26.539Z,4.97
2022-11-20T17:13:56.095Z,4.92
2022-11-20T17:16:25.914Z,4.68
2022-11-20T17:19:01.080Z,4.85
2022-11-20T17:24:39.186Z,4.88
2022-11-20T17:27:07.193Z,4.87
2022-11-20T17:29:40.673Z,4.87
2022-11-20T17:32:10.112Z,4.79
2022-11-20T17:34:38.215Z,4.71
2022-11-20T17:37:07.581Z,4.66
2022-11-20T17:39:35.757Z,4.65
2022-11-20T17:42:23.021Z,4.71
2022-11-20T17:44:58.378Z,4.75
2022-11-20T17:47:27.063Z,4.75
2022-11-20T17:49:55.532Z,4.69
2022-11-20T17:52:23.862Z,4.68
2022-11-20T17:54:55.711Z,4.70
2022-11-20T17:57:44.759Z,4.70
2022-11-20T18:00:17.442Z,4.68
2022-11-20T18:02:45.660Z,4.75
2022-11-20T18:05:13.978Z,4.79
2022-11-20T18:07:52.034Z,4.85
2022-11-20T18:10:20.370Z,4.85
2022-11-20T18:12:53.917Z,4.84
2022-11-20T18:15:22.105Z,4.81
2022-11-20T18:17:50.345Z,4.80
2022-11-20T18:20:29.475Z,4.78
2022-11-20T18:22:59.021Z,4.74
2022-11-20T18:25:31.642Z,4.77
2022-11-20T18:28:01.291Z,4.74
2022-11-20T18:30:29.369Z,4.70
2022-11-20T18:33:00.377Z,4.66
2022-11-20T18:35:28.558Z,4.68
2022-11-20T18:37:59.357Z,4.62
2022-11-20T18:40:27.436Z,4.70
2022-11-20T18:43:13.275Z,4.72
2022-11-20T18:45:45.018Z,4.68
2022-11-20T18:48:16.473Z,4.68
2022-11-20T18:50:44.586Z,4.67
2022-11-20T18:53:18.427Z,4.70
2022-11-20T18:55:48.513Z,4.80
2022-11-20T18:58:21.365Z,4.86
2022-11-20T19:00:51.042Z,4.81
2022-11-20T19:03:21.707Z,4.85
2022-11-20T19:05:52.176Z,4.81
2022-11-20T19:08:22.822Z,4.79
2022-11-20T19:10:51.362Z,4.77
2022-11-20T19:13:19.533Z,4.75
2022-11-20T19:15:55.179Z,4.75
2022-11-20T19:18:24.787Z,4.74
2022-11-20T19:20:53.151Z,4.73
2022-11-20T19:23:22.700Z,4.74
2022-11-20T19:25:50.887Z,4.75
2022-11-20T19:28:19.022Z,4.78
2022-11-20T19:30:47.404Z,4.81
2022-11-20T19:33:17.853Z,4.81
2022-11-20T19:35:47.467Z,4.79
2022-11-20T19:38:17.949Z,4.77
2022-11-20T19:40:48.590Z,4.76
2022-11-20T19:43:17.673Z,4.77
2022-11-20T19:45:48.720Z,4.77
2022-11-20T19:48:17.123Z,4.72
2022-11-20T19:50:51.267Z,4.71
2022-11-20T19:53:19.815Z,4.65
2022-11-20T19:55:56.795Z,4.65
2022-11-20T19:58:24.958Z,4.62
2022-11-20T20:00:53.272Z,4.60
2022-11-20T20:03:25.717Z,4.63
2022-11-20T20:05:55.379Z,4.61
2022-11-20T20:08:24.829Z,4.60
2022-11-20T20:10:59.527Z,4.59
2022-11-20T20:13:30.208Z,4.57
2022-11-20T20:16:00.626Z,4.56
2022-11-20T20:18:28.730Z,4.55
2022-11-20T20:21:03.910Z,4.57
2022-11-20T20:23:32.527Z,4.58
2022-11-20T20:26:01.224Z,4.54
2022-11-20T20:28:31.659Z,4.49
2022-11-20T20:31:08.085Z,4.40
2022-11-20T20:33:39.266Z,4.45
2022-11-20T20:36:10.516Z,4.41
2022-11-20T20:38:47.981Z,4.41
2022-11-20T20:41:20.173Z,4.37
2022-11-20T20:44:05.761Z,4.41
2022-11-20T20:46:34.114Z,4.31
2022-11-20T20:49:02.304Z,4.21
2022-11-20T20:51:32.256Z,4.15
2022-11-20T20:54:00.459Z,3.88
2022-11-20T20:56:28.623Z,3.96
2022-11-20T20:58:59.289Z,3.82
2022-11-20T21:01:28.822Z,3.77
2022-11-20T21:03:57.854Z,3.65
2022-11-20T21:06:28.216Z,3.54
2022-11-20T21:08:58.737Z,3.40
2022-11-20T21:11:28.969Z,3.39
2022-11-20T21:13:57.231Z,3.36
2022-11-20T21:16:25.817Z,3.36
2022-11-20T21:18:54.136Z,3.39
2022-11-20T21:21:39.707Z,3.42
2022-11-20T21:24:11.499Z,3.43
2022-11-20T21:26:39.603Z,3.42
2022-11-20T21:29:10.277Z,3.33
2022-11-20T21:31:38.440Z,3.34
2022-11-20T21:34:12.990Z,3.27
2022-11-20T21:36:41.039Z,3.24
2022-11-20T21:39:12.608Z,3.32
2022-11-20T21:41:45.344Z,3.31
2022-11-20T21:44:32.062Z,3.45
2022-11-20T21:47:02.713Z,3.50
2022-11-20T21:49:31.160Z,3.54
2022-11-20T21:51:59.334Z,3.47
2022-11-20T21:54:29.065Z,3.40
2022-11-20T21:56:57.189Z,3.48
2022-11-20T21:59:25.700Z,3.51
2022-11-20T22:01:56.267Z,3.56
2022-11-20T22:04:24.937Z,3.58
2022-11-20T22:06:55.360Z,3.61
2022-11-20T22:09:23.782Z,3.65
2022-11-20T22:11:53.201Z,3.69
2022-11-20T22:14:20.700Z,3.73
2022-11-20T22:16:52.664Z,3.82
2022-11-20T22:19:22.353Z,3.94
2022-11-20T22:21:51.570Z,4.11
2022-11-20T22:25:38.569Z,4.41
2022-11-20T22:28:06.657Z,4.48
2022-11-20T22:30:34.944Z,4.58
2022-11-20T22:33:02.984Z,4.67
2022-11-20T22:35:31.271Z,4.68
2022-11-20T22:37:59.381Z,4.81
2022-11-20T22:40:30.051Z,4.73
2022-11-20T22:42:59.414Z,4.78
2022-11-20T22:45:27.622Z,4.86
2022-11-20T22:47:57.844Z,4.81
2022-11-20T22:50:25.902Z,4.83
2022-11-20T22:52:54.328Z,4.87
2022-11-20T22:55:22.479Z,4.91
2022-11-20T22:57:50.509Z,4.94
2022-11-20T23:00:21.034Z,4.96
2022-11-20T23:02:53.584Z,5.00
2022-11-20T23:05:21.657Z,4.93
2022-11-20T23:07:49.778Z,5.02
2022-11-20T23:13:00.674Z,5.18
2022-11-20T23:15:34.516Z,5.11
2022-11-20T23:18:02.695Z,5.13
2022-11-20T23:20:30.910Z,5.25
2022-11-20T23:22:59.035Z,5.25
2022-11-20T23:25:29.199Z,5.24
2022-11-20T23:27:59.660Z,5.27
2022-11-20T23:30:30.276Z,5.33
2022-11-20T23:32:59.746Z,5.33
2022-11-20T23:35:27.853Z,5.39
2022-11-20T23:37:55.802Z,5.43
2022-11-20T23:40:23.921Z,5.44
2022-11-20T23:43:09.574Z,5.41
2022-11-20T23:45:39.575Z,5.47
2022-11-20T23:48:09.121Z,5.51
2022-11-20T23:50:37.421Z,5.49
2022-11-20T23:53:05.896Z,5.55
2022-11-20T23:55:34.217Z,5.58
2022-11-20T23:58:02.508Z,5.60
